Time;durP1;ratioP1;P1;durP2;ratioP2;P2;SDS_P1;SDS_P2;PMS_P1;PMS_P2;Temp;Humidity;BMP_temperature;BMP_pressure;BME280_temperature;BME280_humidity;BME280_pressure;Samples;Min_cycle;Max_cycle;Signal;HPM_P1;HPM_P2
2023/10/23 00:02:10;;;;;;;62.93;30.37;;;;;;;;;;5070516;28;20040;-59
2023/10/23 00:04:36;;;;;;;62.33;31.53;;;;;;;;;;5070352;28;20060;-59
2023/10/23 00:07:02;;;;;;;58.70;30.33;;;;;;;;;;5060647;28;20045;-59
2023/10/23 00:09:29;;;;;;;50.17;29.30;;;;;;;;;;5049379;28;20044;-61
2023/10/23 00:11:55;;;;;;;55.63;30.90;;;;;;;;;;5050001;28;20037;-61
2023/10/23 00:14:21;;;;;;;58.43;31.60;;;;;;;;;;5048427;28;20454;-61
2023/10/23 00:16:47;;;;;;;58.00;31.87;;;;;;;;;;5050684;28;20045;-61
2023/10/23 00:19:13;;;;;;;64.93;32.63;;;;;;;;;;5065025;28;20037;-62
2023/10/23 00:21:44;;;;;;;56.17;32.80;;;;;;;;;;5067895;28;20101;-61
2023/10/23 00:24:10;;;;;;;61.13;33.87;;;;;;;;;;5052352;28;20080;-61
2023/10/23 00:26:36;;;;;;;63.60;34.20;;;;;;;;;;5059350;28;20068;-61
2023/10/23 00:29:03;;;;;;;67.90;34.97;;;;;;;;;;5051874;28;20053;-61
2023/10/23 00:31:29;;;;;;;64.60;33.53;;;;;;;;;;5049445;28;20511;-61
2023/10/23 00:33:55;;;;;;;66.50;33.40;;;;;;;;;;5049413;28;20041;-61
2023/10/23 00:36:21;;;;;;;62.77;34.50;;;;;;;;;;5049731;28;20526;-61
2023/10/23 00:38:47;;;;;;;62.43;32.90;;;;;;;;;;5048475;28;20364;-61
2023/10/23 00:41:13;;;;;;;63.03;35.00;;;;;;;;;;5048877;28;20049;-61
2023/10/23 00:43:39;;;;;;;71.37;34.97;;;;;;;;;;5049742;28;20048;-61
2023/10/23 00:46:16;;;;;;;70.37;34.43;;;;;;;;;;5048807;28;20095;-61
2023/10/23 00:48:43;;;;;;;67.00;33.60;;;;;;;;;;5052208;28;20041;-61
2023/10/23 00:51:11;;;;;;;66.97;34.77;;;;;;;;;;5057388;28;20063;-61
2023/10/23 00:53:37;;;;;;;59.60;33.07;;;;;;;;;;5049049;28;20076;-61
2023/10/23 00:56:07;;;;;;;58.63;31.17;;;;;;;;;;5048621;28;20041;-61
2023/10/23 00:58:37;;;;;;;61.20;32.40;;;;;;;;;;5065899;28;20052;-61
2023/10/23 01:01:04;;;;;;;69.30;32.87;;;;;;;;;;5069032;28;20132;-61
2023/10/23 01:03:30;;;;;;;62.20;31.60;;;;;;;;;;5068678;28;20052;-61
2023/10/23 01:05:56;;;;;;;76.73;36.47;;;;;;;;;;5068168;28;20048;-61
2023/10/23 01:08:22;;;;;;;77.27;34.43;;;;;;;;;;5068853;28;20044;-61
2023/10/23 01:10:48;;;;;;;64.90;33.10;;;;;;;;;;5068970;28;20047;-61
2023/10/23 01:13:14;;;;;;;82.80;36.20;;;;;;;;;;5051148;28;20048;-61
2023/10/23 01:15:40;;;;;;;96.60;39.43;;;;;;;;;;5048429;28;21590;-61
2023/10/23 01:18:07;;;;;;;68.37;32.87;;;;;;;;;;5066940;28;20127;-61
2023/10/23 01:20:33;;;;;;;65.67;32.47;;;;;;;;;;5068170;28;20055;-61
2023/10/23 01:22:59;;;;;;;58.87;32.20;;;;;;;;;;5068633;28;20052;-61
2023/10/23 01:25:25;;;;;;;64.37;31.93;;;;;;;;;;5064416;28;20621;-62
2023/10/23 01:27:52;;;;;;;80.83;35.93;;;;;;;;;;5048407;28;20450;-61
2023/10/23 01:30:18;;;;;;;75.27;33.70;;;;;;;;;;5047920;28;20045;-61
2023/10/23 01:32:44;;;;;;;72.13;30.97;;;;;;;;;;5048537;28;20091;-61
2023/10/23 01:35:10;;;;;;;81.23;33.17;;;;;;;;;;5048177;28;20099;-61
2023/10/23 01:37:36;;;;;;;90.50;36.13;;;;;;;;;;5048356;28;20202;-61
2023/10/23 01:40:03;;;;;;;61.07;29.47;;;;;;;;;;5048062;28;20057;-61
2023/10/23 01:42:30;;;;;;;135.40;40.57;;;;;;;;;;5047448;28;20056;-61
2023/10/23 01:44:56;;;;;;;75.57;31.07;;;;;;;;;;5051427;28;20447;-61
2023/10/23 01:47:26;;;;;;;71.97;33.60;;;;;;;;;;5068485;28;20478;-61
2023/10/23 01:49:52;;;;;;;65.80;30.83;;;;;;;;;;5067486;28;20051;-61
2023/10/23 01:52:18;;;;;;;48.07;27.53;;;;;;;;;;5068324;28;20495;-61
2023/10/23 01:54:44;;;;;;;57.33;28.67;;;;;;;;;;5057968;28;20040;-62
2023/10/23 01:57:10;;;;;;;44.63;26.00;;;;;;;;;;5048201;28;20051;-61
2023/10/23 01:59:37;;;;;;;50.87;26.27;;;;;;;;;;5047196;28;20049;-61
2023/10/23 02:02:03;;;;;;;71.83;33.03;;;;;;;;;;5047876;28;20095;-61
2023/10/23 02:04:29;;;;;;;68.90;30.87;;;;;;;;;;5047706;28;20049;-62
2023/10/23 02:06:55;;;;;;;62.07;30.50;;;;;;;;;;5048168;28;20037;-61
2023/10/23 02:09:21;;;;;;;54.13;28.43;;;;;;;;;;5048190;28;20045;-61
2023/10/23 02:11:48;;;;;;;49.17;27.27;;;;;;;;;;5047991;28;20131;-61
2023/10/23 02:14:14;;;;;;;54.13;27.30;;;;;;;;;;5048140;28;20049;-61
2023/10/23 02:16:40;;;;;;;56.33;29.77;;;;;;;;;;5047969;28;20045;-61
2023/10/23 02:19:06;;;;;;;51.50;27.17;;;;;;;;;;5047918;28;20037;-61
2023/10/23 02:21:32;;;;;;;53.00;28.73;;;;;;;;;;5047593;28;20049;-61
2023/10/23 02:23:58;;;;;;;56.47;28.63;;;;;;;;;;5053267;28;20052;-61
2023/10/23 02:26:25;;;;;;;48.27;27.07;;;;;;;;;;5067726;28;20045;-61
2023/10/23 02:28:51;;;;;;;43.00;25.17;;;;;;;;;;5067916;28;20048;-62
2023/10/23 02:31:17;;;;;;;44.50;26.17;;;;;;;;;;5067492;28;20048;-61
2023/10/23 02:33:43;;;;;;;42.37;24.70;;;;;;;;;;5067819;28;20044;-61
2023/10/23 02:36:09;;;;;;;48.37;26.27;;;;;;;;;;5067488;28;20044;-61
2023/10/23 02:38:35;;;;;;;53.97;27.50;;;;;;;;;;5060998;28;20061;-61
2023/10/23 02:41:01;;;;;;;46.73;27.47;;;;;;;;;;5056154;28;20049;-62
2023/10/23 02:43:27;;;;;;;38.17;23.13;;;;;;;;;;5049341;28;20106;-61
2023/10/23 02:45:53;;;;;;;43.87;23.87;;;;;;;;;;5047222;28;20040;-61
2023/10/23 02:48:19;;;;;;;52.90;26.53;;;;;;;;;;5047347;28;20453;-62
2023/10/23 02:50:55;;;;;;;61.97;28.73;;;;;;;;;;5047930;28;20041;-62
2023/10/23 02:53:22;;;;;;;36.00;20.67;;;;;;;;;;5048179;28;20123;-61
2023/10/23 02:55:48;;;;;;;45.20;22.97;;;;;;;;;;5050212;28;20080;-61
2023/10/23 02:58:16;;;;;;;35.17;20.53;;;;;;;;;;5050677;28;20044;-61
2023/10/23 03:00:42;;;;;;;44.63;22.23;;;;;;;;;;5051368;28;20136;-61
2023/10/23 03:03:09;;;;;;;46.13;22.43;;;;;;;;;;5050987;28;20061;-61
2023/10/23 03:05:35;;;;;;;54.47;26.33;;;;;;;;;;5051180;28;20088;-61
2023/10/23 03:08:02;;;;;;;46.03;24.17;;;;;;;;;;5051431;28;20057;-61
2023/10/23 03:10:28;;;;;;;42.70;22.77;;;;;;;;;;5050700;28;20099;-61
2023/10/23 03:12:54;;;;;;;48.50;25.40;;;;;;;;;;5051426;28;20403;-61
2023/10/23 03:15:20;;;;;;;87.00;32.37;;;;;;;;;;5050677;28;20041;-62
2023/10/23 03:17:46;;;;;;;53.33;26.50;;;;;;;;;;5050870;28;20049;-61
2023/10/23 03:20:12;;;;;;;41.47;22.77;;;;;;;;;;5050614;28;20462;-61
2023/10/23 03:22:39;;;;;;;57.00;27.90;;;;;;;;;;5050711;28;20041;-61
2023/10/23 03:25:08;;;;;;;47.37;24.67;;;;;;;;;;5060013;28;20514;-61
2023/10/23 03:27:34;;;;;;;44.77;25.93;;;;;;;;;;5070971;28;20654;-61
2023/10/23 03:30:01;;;;;;;44.97;24.03;;;;;;;;;;5070776;28;20052;-61
2023/10/23 03:32:27;;;;;;;62.53;29.83;;;;;;;;;;5070596;28;20514;-61
2023/10/23 03:34:53;;;;;;;70.03;31.50;;;;;;;;;;5070920;28;20490;-61
2023/10/23 03:37:19;;;;;;;65.57;29.63;;;;;;;;;;5050923;28;20051;-62
2023/10/23 03:39:45;;;;;;;78.70;32.43;;;;;;;;;;5067661;28;20060;-61
2023/10/23 03:42:11;;;;;;;59.53;30.73;;;;;;;;;;5070311;28;20052;-61
2023/10/23 03:44:37;;;;;;;56.23;28.80;;;;;;;;;;5070550;28;20123;-61
2023/10/23 03:47:04;;;;;;;62.50;31.03;;;;;;;;;;5069854;28;20545;-62
2023/10/23 03:49:30;;;;;;;42.47;25.13;;;;;;;;;;5070172;28;20139;-62
2023/10/23 03:51:56;;;;;;;53.00;28.60;;;;;;;;;;5052810;28;20045;-62
2023/10/23 03:54:22;;;;;;;72.27;32.23;;;;;;;;;;5052427;28;20051;-62
2023/10/23 03:56:48;;;;;;;77.40;34.53;;;;;;;;;;5061161;28;20116;-61
2023/10/23 03:59:14;;;;;;;55.00;28.03;;;;;;;;;;5049575;28;20055;-61
2023/10/23 04:01:40;;;;;;;74.10;31.20;;;;;;;;;;5049986;28;20049;-61
2023/10/23 04:04:08;;;;;;;99.73;37.10;;;;;;;;;;5050426;28;20049;-61
2023/10/23 04:06:34;;;;;;;72.00;29.43;;;;;;;;;;5049379;28;20045;-62
2023/10/23 04:09:00;;;;;;;56.77;26.13;;;;;;;;;;5049720;28;20045;-61
2023/10/23 04:11:26;;;;;;;53.37;25.03;;;;;;;;;;5050378;28;20055;-61
2023/10/23 04:13:52;;;;;;;44.23;23.97;;;;;;;;;;5050169;28;20049;-62
2023/10/23 04:16:18;;;;;;;61.37;27.60;;;;;;;;;;5050018;28;20492;-62
2023/10/23 04:18:44;;;;;;;58.40;28.00;;;;;;;;;;5049342;28;20045;-61
2023/10/23 04:21:11;;;;;;;69.30;27.30;;;;;;;;;;5049451;28;20573;-62
2023/10/23 04:23:38;;;;;;;67.03;28.17;;;;;;;;;;5049414;28;20045;-62
2023/10/23 04:26:04;;;;;;;64.63;29.80;;;;;;;;;;5049439;28;20047;-62
2023/10/23 04:28:31;;;;;;;55.43;27.17;;;;;;;;;;5056325;28;20584;-62
2023/10/23 04:30:57;;;;;;;65.90;27.77;;;;;;;;;;5066353;28;20124;-62
2023/10/23 04:33:23;;;;;;;71.37;29.63;;;;;;;;;;5049020;28;20048;-61
2023/10/23 04:35:56;;;;;;;74.77;32.00;;;;;;;;;;5048723;28;20045;-61
2023/10/23 04:38:22;;;;;;;56.10;25.93;;;;;;;;;;5056141;28;20057;-61
2023/10/23 04:40:50;;;;;;;73.37;31.13;;;;;;;;;;5069196;28;20823;-61
2023/10/23 04:43:16;;;;;;;66.83;28.30;;;;;;;;;;5069463;28;20048;-61
2023/10/23 04:45:42;;;;;;;50.10;27.03;;;;;;;;;;5068635;28;20044;-61
2023/10/23 04:48:09;;;;;;;44.17;24.20;;;;;;;;;;5060386;28;20045;-61
2023/10/23 04:50:35;;;;;;;46.77;25.27;;;;;;;;;;5048887;28;20143;-61
2023/10/23 04:53:02;;;;;;;49.67;23.60;;;;;;;;;;5048889;28;20044;-61
2023/10/23 04:55:41;;;;;;;44.77;23.20;;;;;;;;;;5048356;28;20061;-61
2023/10/23 04:58:09;;;;;;;70.80;30.20;;;;;;;;;;5048938;28;20037;-61
2023/10/23 05:00:36;;;;;;;53.53;25.43;;;;;;;;;;5058547;28;20458;-61
2023/10/23 05:03:06;;;;;;;71.27;30.93;;;;;;;;;;5058806;28;20540;-61
2023/10/23 05:05:32;;;;;;;70.53;29.83;;;;;;;;;;5049079;28;20059;-61
2023/10/23 05:07:58;;;;;;;103.30;37.20;;;;;;;;;;5048895;28;20044;-61
2023/10/23 05:10:24;;;;;;;65.10;30.33;;;;;;;;;;5048808;28;20156;-61
2023/10/23 05:12:50;;;;;;;74.30;31.03;;;;;;;;;;5049157;28;20045;-61
2023/10/23 05:15:17;;;;;;;62.23;31.63;;;;;;;;;;5047405;28;20048;-61
2023/10/23 05:17:43;;;;;;;103.93;37.77;;;;;;;;;;5048201;28;20049;-61
2023/10/23 05:20:09;;;;;;;72.73;32.33;;;;;;;;;;5048758;28;20091;-61
2023/10/23 05:22:35;;;;;;;64.50;30.33;;;;;;;;;;5048271;28;20053;-61
2023/10/23 05:25:02;;;;;;;57.03;29.47;;;;;;;;;;5048484;28;20068;-61
2023/10/23 05:27:28;;;;;;;58.03;28.50;;;;;;;;;;5048161;28;20440;-61
2023/10/23 05:29:55;;;;;;;55.00;28.97;;;;;;;;;;5055033;28;20072;-61
2023/10/23 05:32:21;;;;;;;76.23;31.83;;;;;;;;;;5063158;28;20124;-61
2023/10/23 05:34:47;;;;;;;55.43;26.87;;;;;;;;;;5056622;28;20041;-61
2023/10/23 05:37:13;;;;;;;85.13;35.93;;;;;;;;;;5068477;28;20116;-61
2023/10/23 05:39:39;;;;;;;78.30;35.47;;;;;;;;;;5068455;28;20153;-61
2023/10/23 05:42:05;;;;;;;75.10;34.17;;;;;;;;;;5068071;28;20418;-61
2023/10/23 05:44:31;;;;;;;137.97;46.23;;;;;;;;;;5068804;28;20048;-61
2023/10/23 05:46:57;;;;;;;165.13;49.03;;;;;;;;;;5068220;28;20044;-61
2023/10/23 05:49:24;;;;;;;146.87;47.17;;;;;;;;;;5067547;28;20044;-61
2023/10/23 05:51:49;;;;;;;138.67;45.90;;;;;;;;;;5068388;28;20040;-61
2023/10/23 05:54:16;;;;;;;109.03;40.93;;;;;;;;;;5066434;28;20115;-61
2023/10/23 05:56:43;;;;;;;128.67;43.60;;;;;;;;;;5067640;28;20044;-61
2023/10/23 05:59:09;;;;;;;82.27;34.40;;;;;;;;;;5072693;28;20051;-61
2023/10/23 06:01:35;;;;;;;99.03;36.47;;;;;;;;;;5088539;28;20418;-61
2023/10/23 06:04:01;;;;;;;94.97;35.63;;;;;;;;;;5075806;28;20049;-61
2023/10/23 06:06:27;;;;;;;83.97;32.57;;;;;;;;;;5052809;28;20075;-61
2023/10/23 06:08:53;;;;;;;78.50;30.97;;;;;;;;;;5045806;28;20087;-61
2023/10/23 06:11:19;;;;;;;121.30;38.53;;;;;;;;;;5048017;28;20072;-61
2023/10/23 06:13:45;;;;;;;76.53;27.93;;;;;;;;;;5048110;28;20045;-61
2023/10/23 06:16:11;;;;;;;58.43;26.00;;;;;;;;;;5049041;28;20091;-61
2023/10/23 06:18:38;;;;;;;51.63;23.57;;;;;;;;;;5057119;28;20076;-61
2023/10/23 06:21:05;;;;;;;92.77;32.47;;;;;;;;;;5067610;28;20041;-61
2023/10/23 06:23:35;;;;;;;76.00;31.67;;;;;;;;;;5067067;28;20045;-61
2023/10/23 06:26:01;;;;;;;112.53;37.73;;;;;;;;;;5067995;28;20055;-61
2023/10/23 06:28:27;;;;;;;106.97;36.20;;;;;;;;;;5062870;28;20407;-61
2023/10/23 06:30:53;;;;;;;123.93;41.27;;;;;;;;;;5060265;28;20036;-61
2023/10/23 06:33:19;;;;;;;160.43;48.10;;;;;;;;;;5064412;28;20069;-62
2023/10/23 06:35:45;;;;;;;117.63;37.20;;;;;;;;;;5051562;28;20166;-61
2023/10/23 06:38:11;;;;;;;127.63;41.03;;;;;;;;;;5051657;28;20495;-61
2023/10/23 06:40:37;;;;;;;152.87;43.83;;;;;;;;;;5051454;28;20041;-61
2023/10/23 06:43:03;;;;;;;123.10;38.70;;;;;;;;;;5051501;28;20045;-61
2023/10/23 06:45:29;;;;;;;74.10;28.93;;;;;;;;;;5057423;28;20067;-61
2023/10/23 06:47:55;;;;;;;128.67;39.73;;;;;;;;;;5058415;28;20041;-62
2023/10/23 06:50:21;;;;;;;92.03;33.07;;;;;;;;;;5070376;28;20056;-61
2023/10/23 06:52:47;;;;;;;145.40;42.87;;;;;;;;;;5066111;28;20057;-61
2023/10/23 06:55:13;;;;;;;109.73;35.43;;;;;;;;;;5049914;28;20087;-61
2023/10/23 06:57:39;;;;;;;111.80;36.20;;;;;;;;;;5050939;28;20120;-61
2023/10/23 07:00:08;;;;;;;83.63;32.23;;;;;;;;;;5061026;28;20608;-61
2023/10/23 07:02:34;;;;;;;77.53;30.77;;;;;;;;;;5065932;28;20090;-60
2023/10/23 07:05:00;;;;;;;92.37;35.27;;;;;;;;;;5065269;28;20045;-61
2023/10/23 07:07:28;;;;;;;141.40;43.60;;;;;;;;;;5058303;28;20036;-61
2023/10/23 07:09:58;;;;;;;115.87;41.30;;;;;;;;;;5061626;28;20052;-61
2023/10/23 07:12:24;;;;;;;122.80;39.57;;;;;;;;;;5062980;28;20414;-61
2023/10/23 07:14:50;;;;;;;65.53;26.93;;;;;;;;;;5068866;28;20048;-61
2023/10/23 07:17:16;;;;;;;425.37;57.83;;;;;;;;;;5062269;28;20120;-61
2023/10/23 07:19:42;;;;;;;271.20;36.53;;;;;;;;;;5068759;28;20040;-61
2023/10/23 07:22:08;;;;;;;164.17;32.17;;;;;;;;;;5059719;28;20049;-61
2023/10/23 07:24:34;;;;;;;91.57;28.07;;;;;;;;;;5056342;28;20123;-61
2023/10/23 07:27:00;;;;;;;117.90;32.80;;;;;;;;;;5068437;28;20041;-61
2023/10/23 07:29:27;;;;;;;184.40;42.17;;;;;;;;;;5058661;28;20033;-61
2023/10/23 07:31:53;;;;;;;486.23;72.70;;;;;;;;;;5056295;28;20045;-61
2023/10/23 07:34:19;;;;;;;393.87;62.67;;;;;;;;;;5052053;28;20033;-61
2023/10/23 07:36:45;;;;;;;551.37;87.83;;;;;;;;;;5051328;28;20053;-61
2023/10/23 07:39:11;;;;;;;199.97;44.07;;;;;;;;;;5051287;28;20056;-61
2023/10/23 07:41:37;;;;;;;178.63;40.03;;;;;;;;;;5062743;28;20063;-61
2023/10/23 07:44:04;;;;;;;315.13;56.67;;;;;;;;;;5055887;28;20234;-61
2023/10/23 07:46:30;;;;;;;196.27;41.93;;;;;;;;;;5064020;28;20049;-61
2023/10/23 07:48:57;;;;;;;489.73;76.50;;;;;;;;;;5050089;28;20411;-61
2023/10/23 07:51:23;;;;;;;577.63;89.70;;;;;;;;;;5049804;28;20109;-62
2023/10/23 07:53:49;;;;;;;542.03;82.53;;;;;;;;;;5049687;28;20531;-61
2023/10/23 07:56:15;;;;;;;581.57;93.23;;;;;;;;;;5050203;28;20053;-61
2023/10/23 07:58:41;;;;;;;619.03;93.33;;;;;;;;;;5049556;28;20052;-62
2023/10/23 08:01:08;;;;;;;511.40;88.33;;;;;;;;;;5049891;28;20187;-62
2023/10/23 08:03:35;;;;;;;655.97;104.20;;;;;;;;;;5049890;28;20139;-62
2023/10/23 08:06:03;;;;;;;562.77;99.80;;;;;;;;;;5048457;28;20423;-62
2023/10/23 08:08:29;;;;;;;682.97;112.10;;;;;;;;;;5049786;28;20449;-62
2023/10/23 08:10:55;;;;;;;546.77;104.07;;;;;;;;;;5049367;28;20051;-62
2023/10/23 08:13:21;;;;;;;645.83;110.17;;;;;;;;;;5049628;28;20040;-62
2023/10/23 08:15:47;;;;;;;825.07;144.53;;;;;;;;;;5049286;28;20102;-62
2023/10/23 08:18:13;;;;;;;552.37;100.27;;;;;;;;;;5049340;28;20132;-62
2023/10/23 08:20:39;;;;;;;566.33;106.47;;;;;;;;;;5049511;28;20487;-62
2023/10/23 08:23:05;;;;;;;582.67;105.83;;;;;;;;;;5049691;28;20037;-62
2023/10/23 08:25:31;;;;;;;627.57;116.73;;;;;;;;;;5048840;28;20056;-62
2023/10/23 08:27:57;;;;;;;632.30;117.07;;;;;;;;;;5049283;28;20507;-62
2023/10/23 08:30:22;;;;;;;594.10;117.67;;;;;;;;;;5048626;28;20048;-62
2023/10/23 08:32:49;;;;;;;717.63;129.90;;;;;;;;;;5049055;28;20435;-62
2023/10/23 08:35:15;;;;;;;422.70;84.50;;;;;;;;;;5048730;28;20045;-62
2023/10/23 08:37:41;;;;;;;445.17;90.37;;;;;;;;;;5049167;28;20060;-62
2023/10/23 08:40:07;;;;;;;309.90;71.67;;;;;;;;;;5048679;28;20514;-62
2023/10/23 08:42:34;;;;;;;289.60;67.33;;;;;;;;;;5048180;28;20051;-62
2023/10/23 08:45:00;;;;;;;345.37;69.07;;;;;;;;;;5049112;28;20049;-62
2023/10/23 08:47:26;;;;;;;249.73;61.60;;;;;;;;;;5047377;28;20130;-62
2023/10/23 08:49:53;;;;;;;324.00;67.43;;;;;;;;;;5030958;28;20122;-62
2023/10/23 08:52:21;;;;;;;340.30;69.70;;;;;;;;;;5048707;28;20044;-62
2023/10/23 08:54:48;;;;;;;364.80;73.53;;;;;;;;;;5060872;28;20048;-62
2023/10/23 08:57:15;;;;;;;312.13;71.17;;;;;;;;;;5068555;28;20040;-62
2023/10/23 08:59:42;;;;;;;302.13;62.23;;;;;;;;;;5068449;28;20496;-62
2023/10/23 09:02:08;;;;;;;392.50;71.23;;;;;;;;;;5066515;28;20059;-62
2023/10/23 09:04:35;;;;;;;370.03;68.47;;;;;;;;;;5068394;28;20109;-62
2023/10/23 09:07:01;;;;;;;268.13;58.33;;;;;;;;;;5069066;28;20087;-62
2023/10/23 09:09:28;;;;;;;287.40;62.57;;;;;;;;;;5057041;28;20529;-62
2023/10/23 09:11:54;;;;;;;220.77;53.73;;;;;;;;;;5048521;28;20143;-62
2023/10/23 09:14:28;;;;;;;149.90;44.37;;;;;;;;;;5048429;28;20247;-62
2023/10/23 09:16:54;;;;;;;;;;;;;;;;;;5048606;28;20162;-62
2023/10/23 09:19:24;;;;;;;175.60;48.17;;;;;;;;;;5048670;28;19924;-62
2023/10/23 09:21:53;;;;;;;147.70;44.97;;;;;;;;;;5048276;28;20061;-62
2023/10/23 09:24:19;;;;;;;114.23;38.17;;;;;;;;;;5048610;28;20048;-62
2023/10/23 09:26:45;;;;;;;482.83;86.13;;;;;;;;;;5048319;28;20442;-62
2023/10/23 09:29:11;;;;;;;274.93;54.33;;;;;;;;;;5047645;28;20055;-62
2023/10/23 09:31:40;;;;;;;465.70;76.33;;;;;;;;;;5048069;28;20037;-62
2023/10/23 09:34:07;;;;;;;576.10;92.53;;;;;;;;;;5047736;28;20515;-62
2023/10/23 09:36:33;;;;;;;243.87;54.30;;;;;;;;;;5048344;28;20268;-62
2023/10/23 09:39:00;;;;;;;411.63;73.23;;;;;;;;;;5058832;28;20494;-62
2023/10/23 09:41:27;;;;;;;308.27;58.87;;;;;;;;;;5067345;28;20376;-62
2023/10/23 09:43:56;;;;;;;242.70;47.43;;;;;;;;;;5066684;28;20071;-62
2023/10/23 09:46:24;;;;;;;339.20;59.57;;;;;;;;;;5067702;28;20087;-62
2023/10/23 09:48:52;;;;;;;559.00;96.53;;;;;;;;;;5067650;28;20044;-62
2023/10/23 09:51:19;;;;;;;473.37;80.60;;;;;;;;;;5061372;28;20143;-62
2023/10/23 09:53:52;;;;;;;387.40;74.83;;;;;;;;;;5048127;28;20041;-62
2023/10/23 09:56:21;;;;;;;241.93;59.20;;;;;;;;;;5047440;28;20076;-62
2023/10/23 09:58:57;;;;;;;163.83;47.63;;;;;;;;;;5047859;28;20052;-62
2023/10/23 10:01:25;;;;;;;174.93;51.00;;;;;;;;;;5047713;28;20102;-62
2023/10/23 10:03:52;;;;;;;106.23;38.20;;;;;;;;;;5047154;28;20672;-62
2023/10/23 10:06:19;;;;;;;69.57;31.53;;;;;;;;;;5055117;28;20080;-62
2023/10/23 10:08:49;;;;;;;61.63;32.23;;;;;;;;;;5068047;28;20041;-62
2023/10/23 10:11:16;;;;;;;58.80;31.50;;;;;;;;;;5067921;28;20106;-62
2023/10/23 10:13:43;;;;;;;50.40;29.53;;;;;;;;;;5067870;28;20040;-62
2023/10/23 10:16:10;;;;;;;41.23;26.60;;;;;;;;;;5067632;28;20124;-62
2023/10/23 10:18:36;;;;;;;41.70;27.87;;;;;;;;;;5067678;28;20037;-62
2023/10/23 10:21:05;;;;;;;42.27;26.53;;;;;;;;;;5058615;28;20053;-62
2023/10/23 10:23:31;;;;;;;43.87;28.40;;;;;;;;;;5047383;28;20053;-62
2023/10/23 10:25:57;;;;;;;49.37;29.70;;;;;;;;;;5047250;28;20388;-62
2023/10/23 10:28:27;;;;;;;43.87;29.13;;;;;;;;;;5045803;28;20056;-62
2023/10/23 10:30:54;;;;;;;50.63;28.80;;;;;;;;;;5046156;28;20057;-62
2023/10/23 10:33:24;;;;;;;39.53;25.90;;;;;;;;;;5054766;28;20055;-63
2023/10/23 10:35:51;;;;;;;37.90;24.40;;;;;;;;;;5061107;28;20646;-62
2023/10/23 10:38:22;;;;;;;41.47;25.63;;;;;;;;;;5066477;28;20049;-63
2023/10/23 10:41:01;;;;;;;45.33;25.43;;;;;;;;;;5065532;28;20057;-62
2023/10/23 10:43:31;;;;;;;37.73;24.97;;;;;;;;;;5066011;28;20066;-62
2023/10/23 10:45:57;;;;;;;42.53;25.53;;;;;;;;;;5065245;28;20519;-62
2023/10/23 10:48:25;;;;;;;35.33;22.00;;;;;;;;;;5067216;28;20123;-62
2023/10/23 10:50:52;;;;;;;32.60;22.60;;;;;;;;;;5055369;28;20081;-62
2023/10/23 10:53:18;;;;;;;32.63;20.80;;;;;;;;;;5050963;28;20664;-62
2023/10/23 10:55:45;;;;;;;30.97;21.97;;;;;;;;;;5052828;28;20053;-62
2023/10/23 10:58:12;;;;;;;29.13;21.10;;;;;;;;;;5066258;28;20498;-62
2023/10/23 11:00:38;;;;;;;31.03;21.03;;;;;;;;;;5066680;28;20079;-62
2023/10/23 11:03:04;;;;;;;28.10;20.40;;;;;;;;;;5063306;28;20045;-62
2023/10/23 11:05:32;;;;;;;29.50;20.23;;;;;;;;;;5054927;28;20039;-62
2023/10/23 11:07:58;;;;;;;28.07;21.03;;;;;;;;;;5066934;28;20053;-62
2023/10/23 11:10:24;;;;;;;31.87;20.90;;;;;;;;;;5065888;28;20055;-62
2023/10/23 11:12:50;;;;;;;31.03;20.50;;;;;;;;;;5065125;28;20041;-62
2023/10/23 11:15:17;;;;;;;28.60;19.37;;;;;;;;;;5047001;28;20041;-61
2023/10/23 11:17:43;;;;;;;22.23;17.83;;;;;;;;;;5060593;28;20037;-62
2023/10/23 11:20:13;;;;;;;25.67;18.83;;;;;;;;;;5049679;28;20033;-62
2023/10/23 11:22:43;;;;;;;25.17;18.77;;;;;;;;;;5050843;28;20056;-62
2023/10/23 11:25:09;;;;;;;20.63;16.07;;;;;;;;;;5050103;28;20415;-62
2023/10/23 11:27:36;;;;;;;23.57;17.73;;;;;;;;;;5062337;28;20568;-62
2023/10/23 11:30:03;;;;;;;22.80;18.10;;;;;;;;;;5069567;28;20106;-61
2023/10/23 11:32:30;;;;;;;26.70;15.80;;;;;;;;;;5064894;28;20040;-61
2023/10/23 11:35:05;;;;;;;22.90;16.47;;;;;;;;;;5067747;28;20036;-62
2023/10/23 11:37:37;;;;;;;23.83;16.70;;;;;;;;;;5050646;28;20051;-61
2023/10/23 11:40:06;;;;;;;24.80;17.17;;;;;;;;;;5057476;28;20529;-64
2023/10/23 11:42:41;;;;;;;22.57;17.07;;;;;;;;;;5068662;28;20059;-62
2023/10/23 11:45:09;;;;;;;22.80;17.00;;;;;;;;;;5069687;28;20045;-62
2023/10/23 11:47:37;;;;;;;22.23;16.63;;;;;;;;;;5063618;28;20067;-61
2023/10/23 11:50:05;;;;;;;25.30;16.40;;;;;;;;;;5067393;28;20156;-61
2023/10/23 11:52:31;;;;;;;18.77;14.33;;;;;;;;;;5069861;28;20049;-62
2023/10/23 11:54:57;;;;;;;17.67;14.03;;;;;;;;;;5067222;28;20045;-61
2023/10/23 11:57:23;;;;;;;18.37;14.70;;;;;;;;;;5069649;28;20453;-61
2023/10/23 11:59:49;;;;;;;19.30;14.20;;;;;;;;;;5069473;28;20040;-62
2023/10/23 12:02:15;;;;;;;17.13;13.37;;;;;;;;;;5058533;28;20043;-62
2023/10/23 12:04:41;;;;;;;16.60;13.67;;;;;;;;;;5068879;28;20053;-61
2023/10/23 12:07:07;;;;;;;15.60;13.07;;;;;;;;;;5068093;28;20072;-61
2023/10/23 12:09:33;;;;;;;17.37;13.93;;;;;;;;;;5068322;28;20056;-61
2023/10/23 12:11:59;;;;;;;14.83;12.83;;;;;;;;;;5050792;28;20423;-61
2023/10/23 12:14:25;;;;;;;15.63;12.43;;;;;;;;;;5056469;28;20541;-61
2023/10/23 12:16:51;;;;;;;16.60;12.83;;;;;;;;;;5066626;28;20049;-61
2023/10/23 12:19:19;;;;;;;18.87;13.87;;;;;;;;;;5069202;28;20555;-61
2023/10/23 12:21:45;;;;;;;18.60;13.83;;;;;;;;;;5069105;28;20159;-61
2023/10/23 12:24:11;;;;;;;15.77;13.27;;;;;;;;;;5068273;28;20072;-61
2023/10/23 12:26:37;;;;;;;17.43;12.83;;;;;;;;;;5068162;28;20076;-61
2023/10/23 12:29:05;;;;;;;16.13;13.30;;;;;;;;;;5068765;28;20055;-64
2023/10/23 12:31:31;;;;;;;13.83;11.53;;;;;;;;;;5050910;28;20047;-63
2023/10/23 12:33:57;;;;;;;13.13;11.40;;;;;;;;;;5049067;28;20400;-62
2023/10/23 12:36:23;;;;;;;15.37;12.67;;;;;;;;;;5057582;28;20376;-61
2023/10/23 12:38:49;;;;;;;16.73;11.97;;;;;;;;;;5054446;28;20045;-61
2023/10/23 12:41:15;;;;;;;14.63;12.40;;;;;;;;;;5053442;28;20525;-61
2023/10/23 12:43:41;;;;;;;15.07;12.37;;;;;;;;;;5058511;28;20503;-61
2023/10/23 12:46:07;;;;;;;18.60;13.63;;;;;;;;;;5056731;28;20037;-61
2023/10/23 12:48:33;;;;;;;13.47;12.07;;;;;;;;;;5057432;28;20087;-61
2023/10/23 12:50:59;;;;;;;17.50;12.27;;;;;;;;;;5058687;28;20040;-61
2023/10/23 12:53:25;;;;;;;15.70;12.00;;;;;;;;;;5058749;28;20033;-61
2023/10/23 12:55:51;;;;;;;13.53;11.47;;;;;;;;;;5054876;28;20510;-63
2023/10/23 12:58:18;;;;;;;14.20;11.47;;;;;;;;;;5051880;28;20477;-61
2023/10/23 13:00:44;;;;;;;12.60;11.23;;;;;;;;;;5064237;28;20037;-61
2023/10/23 13:03:10;;;;;;;13.53;10.53;;;;;;;;;;5052017;28;20033;-60
2023/10/23 13:05:36;;;;;;;12.70;11.00;;;;;;;;;;5064824;28;20487;-61
2023/10/23 13:08:02;;;;;;;12.87;11.10;;;;;;;;;;5057836;28;20128;-61
2023/10/23 13:10:29;;;;;;;17.37;10.97;;;;;;;;;;5051526;28;20052;-61
2023/10/23 13:12:55;;;;;;;12.73;11.30;;;;;;;;;;5056674;28;20446;-59
2023/10/23 13:15:21;;;;;;;15.53;11.77;;;;;;;;;;5058477;28;20106;-59
2023/10/23 13:17:47;;;;;;;15.97;12.93;;;;;;;;;;5064002;28;20043;-61
2023/10/23 13:20:13;;;;;;;13.57;11.37;;;;;;;;;;5054320;28;20044;-61
2023/10/23 13:22:39;;;;;;;17.40;12.73;;;;;;;;;;5049852;28;20491;-61
2023/10/23 13:25:05;;;;;;;15.77;13.07;;;;;;;;;;5060021;28;20052;-61
2023/10/23 13:27:31;;;;;;;17.17;13.73;;;;;;;;;;5052309;28;20037;-61
2023/10/23 13:29:57;;;;;;;15.60;13.37;;;;;;;;;;5050722;28;20048;-61
2023/10/23 13:32:23;;;;;;;14.83;13.33;;;;;;;;;;5067563;28;20411;-60
2023/10/23 13:34:49;;;;;;;15.03;13.43;;;;;;;;;;5066652;28;20040;-60
2023/10/23 13:37:15;;;;;;;18.07;15.63;;;;;;;;;;5051264;28;20518;-60
2023/10/23 13:39:41;;;;;;;19.43;16.03;;;;;;;;;;5051251;28;20056;-60
2023/10/23 13:42:07;;;;;;;20.57;14.93;;;;;;;;;;5054068;28;20048;-60
2023/10/23 13:44:34;;;;;;;18.23;15.33;;;;;;;;;;5060829;28;20060;-61
2023/10/23 13:47:00;;;;;;;19.80;16.27;;;;;;;;;;5067494;28;20044;-61
2023/10/23 13:49:26;;;;;;;16.23;14.43;;;;;;;;;;5048114;28;20055;-61
2023/10/23 13:51:52;;;;;;;21.60;16.73;;;;;;;;;;5060565;28;20048;-60
2023/10/23 13:54:18;;;;;;;18.97;16.83;;;;;;;;;;5068044;28;20066;-60
2023/10/23 13:56:45;;;;;;;19.20;15.10;;;;;;;;;;5062044;28;20041;-60
2023/10/23 13:59:11;;;;;;;20.07;15.37;;;;;;;;;;5067124;28;20123;-60
2023/10/23 14:01:37;;;;;;;18.93;15.53;;;;;;;;;;5060173;28;21394;-61
2023/10/23 14:04:03;;;;;;;18.37;15.90;;;;;;;;;;5061970;28;20041;-61
2023/10/23 14:06:29;;;;;;;19.50;15.53;;;;;;;;;;5066756;28;20048;-60
2023/10/23 14:08:55;;;;;;;17.03;14.80;;;;;;;;;;5060522;28;20415;-60
2023/10/23 14:11:22;;;;;;;16.73;13.70;;;;;;;;;;5060508;28;20153;-60